Time;durP1;ratioP1;P1;durP2;ratioP2;P2;SDS_P1;SDS_P2;PMS_P1;PMS_P2;Temp;Humidity;BMP_temperature;BMP_pressure;BME280_temperature;BME280_humidity;BME280_pressure;Samples;Min_cycle;Max_cycle;Signal;HPM_P1;HPM_P2
2022/12/26 00:01:01;;;;;;;;;8.25;8.25;;;;;14.01;68.00;100958.03;5062692;28;45301;-59
2022/12/26 00:03:26;;;;;;;;;8.00;7.00;;;;;14.01;68.31;100955.38;5078252;28;45268;-58
2022/12/26 00:05:52;;;;;;;;;4.50;3.25;;;;;14.01;68.17;100963.31;5062569;28;45154;-58
2022/12/26 00:08:17;;;;;;;;;6.00;6.00;;;;;13.96;68.59;100966.06;5078154;28;47069;-58
2022/12/26 00:10:43;;;;;;;;;6.00;6.00;;;;;13.92;68.42;100952.09;5062799;28;45417;-58
2022/12/26 00:13:09;;;;;;;;;5.25;5.00;;;;;13.96;67.79;100943.16;5078054;28;45339;-58
2022/12/26 00:15:34;;;;;;;;;5.75;5.50;;;;;13.96;68.24;100956.38;5062612;28;45314;-58
2022/12/26 00:17:59;;;;;;;;;7.00;6.00;;;;;13.96;68.09;100953.75;5062336;28;46185;-58
2022/12/26 00:20:25;;;;;;;;;7.25;6.00;;;;;13.94;68.07;100952.03;5062305;28;45236;-55
2022/12/26 00:22:50;;;;;;;;;6.25;5.00;;;;;13.90;68.58;100963.56;5062514;28;45374;-58
2022/12/26 00:25:15;;;;;;;;;9.25;5.25;;;;;13.91;68.62;100950.34;5062302;28;45282;-58
2022/12/26 00:27:41;;;;;;;;;9.00;5.25;;;;;13.91;68.23;100960.03;5061901;28;45337;-58
2022/12/26 00:30:07;;;;;;;;;7.00;4.50;;;;;13.90;68.65;100953.88;5062354;28;45277;-58
2022/12/26 00:32:32;;;;;;;;;7.50;6.00;;;;;13.89;68.41;100969.78;5062247;28;45334;-58
2022/12/26 00:34:58;;;;;;;;;5.75;5.75;;;;;13.88;68.17;100976.81;5061998;28;45275;-58
2022/12/26 00:37:23;;;;;;;;;9.25;5.50;;;;;13.87;68.36;100964.50;5060629;28;46536;-58
2022/12/26 00:39:48;;;;;;;;;6.00;5.00;;;;;13.81;68.66;100973.47;5062349;28;45310;-58
2022/12/26 00:42:14;;;;;;;;;8.75;5.25;;;;;13.80;68.34;100955.88;5060678;28;45169;-58
2022/12/26 00:44:39;;;;;;;;;5.25;4.50;;;;;13.73;68.84;100964.00;5062070;28;45212;-58
2022/12/26 00:47:04;;;;;;;;;7.25;5.00;;;;;13.73;68.74;100964.00;5062021;28;45401;-58
2022/12/26 00:49:30;;;;;;;;;4.50;4.50;;;;;13.74;68.59;100947.25;5061791;28;45160;-58
2022/12/26 00:51:55;;;;;;;;;5.75;4.00;;;;;13.75;68.42;100960.41;5077489;28;45456;-58
2022/12/26 00:54:20;;;;;;;;;4.75;4.00;;;;;13.69;68.56;100965.84;5061949;28;45263;-58
2022/12/26 00:56:46;;;;;;;;;3.25;3.25;;;;;13.73;68.47;100964.00;5061608;28;45203;-58
2022/12/26 00:59:11;;;;;;;;;4.50;4.50;;;;;13.72;68.43;100954.31;5061527;28;45178;-58
2022/12/26 01:01:37;;;;;;;;;4.00;4.00;;;;;13.76;68.80;100963.91;5061947;28;45224;-58
2022/12/26 01:04:03;;;;;;;;;6.25;3.00;;;;;13.68;68.46;100955.31;5061827;28;45363;-58
2022/12/26 01:06:29;;;;;;;;;4.00;4.00;;;;;13.71;68.80;100955.22;5061758;27;45334;-58
2022/12/26 01:08:54;;;;;;;;;5.50;4.00;;;;;13.69;68.91;100949.13;5061649;28;45458;-58
2022/12/26 01:11:40;;;;;;;;;7.00;5.00;;;;;13.57;68.98;100961.72;5077126;27;45410;-58
2022/12/26 01:14:11;;;;;;;;;4.00;4.00;;;;;13.61;68.57;100966.00;5061603;28;45447;-58
2022/12/26 01:16:37;;;;;;;;;4.00;4.00;;;;;13.59;68.79;100972.25;5061267;28;45190;-58
2022/12/26 01:19:03;;;;;;;;;7.00;4.75;;;;;13.61;68.36;100984.50;5061352;28;45327;-58
2022/12/26 01:21:28;;;;;;;;;5.50;3.00;;;;;13.61;68.69;100996.81;5061077;28;45462;-58
2022/12/26 01:23:54;;;;;;;;;3.50;2.75;;;;;13.62;68.20;101006.47;5061473;28;45374;-58
2022/12/26 01:26:19;;;;;;;;;4.00;4.00;;;;;13.61;68.82;101002.97;5060978;28;46255;-58
2022/12/26 01:28:46;;;;;;;;;3.00;3.00;;;;;13.54;68.72;100987.31;5061304;28;45383;-58
2022/12/26 01:31:11;;;;;;;;;5.75;4.00;;;;;13.56;68.42;100994.28;5061633;28;45346;-58
2022/12/26 01:33:37;;;;;;;;;5.75;4.25;;;;;13.51;68.43;101005.84;5061233;28;45283;-58
2022/12/26 01:36:02;;;;;;;;;4.00;4.00;;;;;13.49;68.72;100990.91;5060974;28;46200;-58
2022/12/26 01:38:28;;;;;;;;;5.25;5.25;;;;;13.43;68.83;100992.81;5061147;28;45202;-55
2022/12/26 01:41:15;;;;;;;;;5.25;3.25;;;;;13.41;68.89;100997.25;5061334;28;45289;-58
2022/12/26 01:43:58;;;;;;;;;4.50;2.25;;;;;13.45;68.88;101025.34;5060996;27;45170;-58
2022/12/26 01:46:38;;;;;;;;;5.50;3.00;;;;;13.41;68.56;101018.38;5061363;27;45537;-58
2022/12/26 01:49:17;;;;;;;;;6.75;4.00;;;;;13.42;68.62;101028.03;5061076;28;45352;-58
2022/12/26 01:51:49;;;;;;;;;4.50;4.00;;;;;13.45;68.74;101035.91;5060438;27;45338;-58
2022/12/26 01:54:15;;;;;;;;;8.00;4.75;;;;;13.42;68.74;101034.22;5060914;28;45295;-58
2022/12/26 01:56:43;;;;;;;;;3.00;2.00;;;;;13.42;69.21;101035.97;5060605;28;46266;-58
2022/12/26 01:59:16;;;;;;;;;4.00;4.00;;;;;13.41;69.26;101047.41;5061030;28;45283;-58
2022/12/26 02:01:44;;;;;;;;;7.00;3.50;;;;;13.37;69.20;101048.34;5060769;28;45257;-58
2022/12/26 02:07:01;;;;;;;;;4.50;2.75;;;;;13.37;69.35;101040.44;5060815;28;45426;-58
2022/12/26 02:09:27;;;;;;;;;4.50;4.25;;;;;13.35;69.24;101048.38;5060561;28;45398;-58
2022/12/26 02:12:02;;;;;;;;;5.50;4.00;;;;;13.38;68.68;101040.44;5059950;28;45442;-58
2022/12/26 02:14:29;;;;;;;;;5.00;3.25;;;;;13.35;69.07;101036.97;5060700;28;45248;-58
2022/12/26 02:16:54;;;;;;;;;4.75;4.75;;;;;13.37;69.08;101049.28;5060562;28;45398;-55
2022/12/26 02:19:38;;;;;;;;;4.00;4.00;;;;;13.37;69.10;101035.16;5060250;28;45162;-56
2022/12/26 02:22:41;;;;;;;;;3.50;2.50;;;;;13.39;68.95;101038.69;5060573;28;45263;-58
2022/12/26 02:25:48;;;;;;;;;3.75;3.50;;;;;13.37;69.34;101032.50;5005645;28;45401;-58
2022/12/26 02:28:31;;;;;;;;;3.75;3.25;;;;;13.33;69.27;101022.03;5057179;28;45328;-58
2022/12/26 02:31:05;;;;;;;;;7.00;3.75;;;;;13.36;69.09;101020.22;5060195;28;45275;-58
2022/12/26 02:33:57;;;;;;;;;3.75;3.25;;;;;13.36;69.34;101029.03;5062309;28;45240;-58
2022/12/26 02:36:45;;;;;;;;;4.00;2.00;;;;;13.39;69.49;101036.03;5060022;28;45320;-58
2022/12/26 02:39:32;;;;;;;;;5.50;3.75;;;;;13.34;69.11;101044.00;5059382;28;45410;-58
2022/12/26 02:42:23;;;;;;;;;3.25;2.00;;;;;13.38;69.17;101050.13;5059367;28;45536;-58
2022/12/26 02:47:51;;;;;;;;;2.00;2.00;;;;;13.39;68.86;101028.97;5060053;28;45445;-58
2022/12/26 03:14:01;;;;;;;;;4.00;1.00;;;;;13.39;69.47;101012.28;5059671;28;45678;-58
2022/12/26 03:19:14;;;;;;;;;2.00;1.75;;;;;13.37;69.29;101016.69;5059856;28;45182;-58
2022/12/26 03:21:43;;;;;;;;;2.00;1.75;;;;;13.40;69.66;101021.94;5059433;28;45232;-58
2022/12/26 03:24:11;;;;;;;;;2.75;1.50;;;;;13.40;69.45;101014.03;5062703;28;46361;-58
2022/12/26 03:26:46;;;;;;;;;2.75;2.75;;;;;13.41;69.28;100999.91;5078700;28;45366;-58
2022/12/26 03:32:10;;;;;;;;;3.00;3.00;;;;;13.39;69.54;101025.47;5063049;28;45430;-58
2022/12/26 03:34:43;;;;;;;;;7.00;3.00;;;;;13.41;69.39;101010.47;5062754;28;47412;-58
2022/12/26 03:37:26;;;;;;;;;2.00;2.00;;;;;13.39;69.50;101030.75;5062977;28;45457;-58
2022/12/26 04:44:27;;;;;;;;;4.00;3.00;;;;;13.19;70.09;101081.28;5039664;28;45364;-56
2022/12/26 04:46:54;;;;;;;;;5.75;4.25;;;;;13.19;70.21;101086.56;5039734;28;45294;-56
2022/12/26 04:52:08;;;;;;;;;5.00;3.00;;;;;13.18;70.31;101075.09;5046214;28;45261;-56
2022/12/26 04:54:33;;;;;;;;;4.00;3.00;;;;;13.20;70.42;101094.44;5061756;28;45205;-56
2022/12/26 04:56:59;;;;;;;;;5.50;2.50;;;;;13.21;70.21;101097.97;5061620;28;45234;-56
2022/12/26 04:59:25;;;;;;;;;7.00;4.75;;;;;13.17;69.85;101103.28;5062101;28;45224;-56
2022/12/26 05:10:12;;;;;;;;;5.00;2.50;;;;;13.15;70.00;101110.34;5061860;28;45169;-56
2022/12/26 05:12:37;;;;;;;;;4.00;4.00;;;;;13.13;70.20;101114.81;5061376;28;45342;-57
2022/12/26 05:15:03;;;;;;;;;3.00;3.00;;;;;13.14;69.81;101123.56;5061719;28;45275;-57
2022/12/26 05:28:40;;;;;;;;;3.50;2.25;;;;;13.13;70.04;101130.63;5061098;28;45232;-57
2022/12/26 05:31:07;;;;;;;;;2.25;2.25;;;;;13.13;70.16;101135.03;5076882;28;45287;-57
2022/12/26 05:36:19;;;;;;;;;2.00;2.00;;;;;13.09;69.89;101113.09;5060895;28;45323;-57
2022/12/26 05:38:45;;;;;;;;;1.00;1.00;;;;;13.08;69.64;101111.38;5076604;28;45505;-57
2022/12/26 05:41:10;;;;;;;;;1.50;1.50;;;;;13.01;70.17;101121.16;5061189;27;45336;-57
2022/12/26 05:43:36;;;;;;;;;2.25;1.50;;;;;13.03;69.81;101133.47;5060864;28;45346;-57
2022/12/26 05:46:01;;;;;;;;;1.00;1.00;;;;;13.05;69.78;101134.31;5060084;28;45368;-57
2022/12/26 05:48:27;;;;;;;;;1.00;1.00;;;;;13.04;69.75;101138.69;5060925;28;45307;-57
2022/12/26 05:50:57;;;;;;;;;4.00;3.50;;;;;13.06;70.09;101147.47;5061215;28;45431;-57
2022/12/26 05:53:22;;;;;;;;;1.25;1.25;;;;;12.99;69.79;101151.09;5060708;28;45548;-57
2022/12/26 05:55:47;;;;;;;;;4.25;3.50;;;;;13.00;69.60;101161.66;5060808;28;45207;-57
2022/12/26 05:58:13;;;;;;;;;1.50;1.50;;;;;13.02;69.41;101158.97;5060857;28;45416;-57
2022/12/26 06:00:38;;;;;;;;;3.50;2.25;;;;;12.98;69.68;101150.25;5076663;28;45455;-57
2022/12/26 06:03:03;;;;;;;;;2.50;2.50;;;;;12.91;69.33;101155.66;5060712;28;45445;-57
2022/12/26 06:05:29;;;;;;;;;1.00;1.00;;;;;12.92;69.53;101154.78;5060914;27;46448;-57
2022/12/26 06:07:54;;;;;;;;;2.00;2.00;;;;;12.94;69.16;101160.88;5060767;28;45366;-57
2022/12/26 06:10:19;;;;;;;;;1.00;1.00;;;;;12.95;69.02;101155.56;5061030;28;45371;-57
2022/12/26 06:12:45;;;;;;;;;1.75;1.75;;;;;12.91;69.41;101159.16;5060452;28;45308;-57
2022/12/26 06:15:11;;;;;;;;;3.25;1.75;;;;;12.95;69.46;101173.16;5060592;28;45401;-56
2022/12/26 06:17:37;;;;;;;;;2.75;2.00;;;;;12.92;69.38;101179.38;5076088;28;45277;-57
2022/12/26 06:20:03;;;;;;;;;1.00;1.00;;;;;12.90;69.41;101169.75;5060470;28;45430;-57
2022/12/26 06:22:28;;;;;;;;;1.00;1.00;;;;;12.88;69.26;101160.97;5060468;28;45330;-57
2022/12/26 06:24:54;;;;;;;;;3.00;1.50;;;;;12.86;69.08;101170.69;5060439;28;46288;-57
2022/12/26 06:27:19;;;;;;;;;2.00;2.00;;;;;12.89;69.04;101165.34;5060093;28;45240;-57
2022/12/26 06:29:45;;;;;;;;;1.25;1.00;;;;;12.82;68.93;101152.28;5060668;28;45355;-57
2022/12/26 06:32:10;;;;;;;;;2.25;2.25;;;;;12.84;69.17;101154.88;5060486;28;45225;-57
2022/12/26 06:34:35;;;;;;;;;2.00;1.75;;;;;12.84;68.98;101160.16;5060132;28;46128;-57
2022/12/26 06:37:01;;;;;;;;;3.25;3.00;;;;;12.84;69.14;101149.59;5060326;28;45303;-57
2022/12/26 06:39:26;;;;;;;;;3.00;1.75;;;;;12.80;69.30;101159.34;5060559;28;45307;-57
2022/12/26 06:41:51;;;;;;;;;4.00;2.00;;;;;12.78;68.94;101165.53;5060125;28;45354;-57
2022/12/26 06:44:17;;;;;;;;;1.75;1.75;;;;;12.77;68.99;101179.63;5075773;28;47068;-57
2022/12/26 06:46:42;;;;;;;;;5.00;2.50;;;;;12.73;69.18;101183.19;5075747;28;45164;-57
2022/12/26 06:49:07;;;;;;;;;1.50;1.00;;;;;12.68;69.04;101189.41;5060294;28;45228;-57
2022/12/26 06:51:34;;;;;;;;;2.00;2.00;;;;;12.74;68.77;101195.50;5059936;28;45315;-57
2022/12/26 06:54:03;;;;;;;;;3.25;3.00;;;;;12.71;68.83;101187.63;5075776;28;48074;-57
2022/12/26 06:56:30;;;;;;;;;3.00;1.00;;;;;12.68;69.04;101197.31;5059817;28;45312;-57
2022/12/26 06:58:57;;;;;;;;;2.00;2.00;;;;;12.70;68.99;101197.28;5058588;28;45380;-57
2022/12/26 07:01:23;;;;;;;;;3.25;2.00;;;;;12.72;68.62;101199.94;5059830;28;45239;-57
2022/12/26 07:03:51;;;;;;;;;3.00;3.00;;;;;12.70;68.90;101214.91;5060011;28;45374;-57
2022/12/26 07:06:30;;;;;;;;;2.75;2.00;;;;;12.70;69.14;101225.44;5059621;28;45435;-57
2022/12/26 07:09:05;;;;;;;;;1.75;1.50;;;;;12.66;68.64;101220.19;5060060;28;45453;-57
2022/12/26 07:11:33;;;;;;;;;1.00;1.00;;;;;12.65;68.62;101222.88;5059576;28;45236;-57
2022/12/26 07:13:59;;;;;;;;;1.00;1.00;;;;;12.63;68.87;101225.53;5059730;28;45470;-57
2022/12/26 07:16:25;;;;;;;;;2.00;2.00;;;;;12.62;68.74;101218.50;5059597;28;45249;-57
2022/12/26 07:18:55;;;;;;;;;2.25;2.00;;;;;12.65;69.24;101223.75;5075542;28;45338;-57
2022/12/26 07:21:21;;;;;;;;;2.00;2.00;;;;;12.64;69.11;101234.31;5059464;28;45286;-57
2022/12/26 07:23:47;;;;;;;;;3.00;1.50;;;;;12.65;69.15;101226.41;5059575;28;45920;-57
2022/12/26 07:26:13;;;;;;;;;3.00;2.00;;;;;12.65;69.16;101238.69;5059270;28;45229;-57
2022/12/26 07:28:38;;;;;;;;;3.00;3.00;;;;;12.64;68.85;101236.94;5059895;28;45442;-57
2022/12/26 07:31:04;;;;;;;;;5.25;3.00;;;;;12.67;69.02;101231.63;5059428;28;45648;-57
2022/12/26 07:33:29;;;;;;;;;6.25;4.25;;;;;12.64;68.96;101250.13;5075116;28;47332;-57
2022/12/26 07:35:59;;;;;;;;;3.75;3.25;;;;;12.65;69.22;101265.06;5059311;28;45466;-57
2022/12/26 07:38:24;;;;;;;;;3.25;3.00;;;;;12.65;69.22;101255.41;5059614;28;45540;-57
2022/12/26 07:40:50;;;;;;;;;5.00;5.00;;;;;12.65;69.32;101252.75;5059439;28;45549;-57
2022/12/26 07:43:15;;;;;;;;;6.00;3.00;;;;;12.64;68.90;101253.66;5074808;28;47036;-57
2022/12/26 07:45:40;;;;;;;;;2.00;2.00;;;;;12.56;69.20;101252.88;5059239;28;45271;-57
2022/12/26 07:48:06;;;;;;;;;5.00;5.00;;;;;12.61;69.58;101255.47;5059433;28;45294;-57
2022/12/26 07:50:31;;;;;;;;;5.00;4.00;;;;;12.60;69.24;101249.31;5059019;28;45252;-57
2022/12/26 07:52:58;;;;;;;;;3.00;3.00;;;;;12.63;69.09;101246.63;5059038;28;47123;-57
2022/12/26 07:55:23;;;;;;;;;2.00;2.00;;;;;12.61;69.31;101258.09;5059377;27;45364;-57
2022/12/26 07:57:50;;;;;;;;;4.00;3.00;;;;;12.63;69.34;101251.03;5059144;28;45529;-57
2022/12/26 08:00:17;;;;;;;;;4.00;4.00;;;;;12.67;69.09;101258.88;5074913;27;45575;-57
2022/12/26 08:02:43;;;;;;;;;4.25;2.50;;;;;12.70;69.00;101265.00;5058961;28;46999;-58
2022/12/26 08:05:08;;;;;;;;;2.75;2.75;;;;;12.63;69.17;101259.81;5058958;28;45379;-58
2022/12/26 08:07:33;;;;;;;;;3.50;2.00;;;;;12.70;69.16;101267.63;5059367;28;45212;-57
2022/12/26 08:09:59;;;;;;;;;3.75;3.75;;;;;12.70;69.20;101273.78;5060946;28;45453;-59
2022/12/26 08:12:25;;;;;;;;;2.75;2.75;;;;;12.73;68.90;101264.94;5062507;28;46017;-57
2022/12/26 08:14:51;;;;;;;;;3.00;3.00;;;;;12.73;69.15;101278.13;5062573;28;45243;-57
2022/12/26 08:17:17;;;;;;;;;4.25;4.00;;;;;12.75;68.99;101279.00;5062625;28;45307;-57
2022/12/26 08:19:42;;;;;;;;;3.00;2.50;;;;;12.77;68.82;101283.34;5062530;28;45251;-57
2022/12/26 08:22:07;;;;;;;;;5.00;3.75;;;;;12.74;69.40;101290.41;5062342;28;45925;-57
2022/12/26 08:24:33;;;;;;;;;4.00;2.00;;;;;12.73;69.22;101289.56;5062309;28;45178;-58
2022/12/26 08:26:58;;;;;;;;;5.75;5.00;;;;;12.71;69.40;101287.84;5062264;28;45379;-58
2022/12/26 08:29:24;;;;;;;;;4.00;4.00;;;;;12.77;69.17;101287.75;5062301;28;45260;-57
2022/12/26 08:31:49;;;;;;;;;2.00;2.00;;;;;12.76;69.36;101299.19;5062240;28;45360;-58
2022/12/26 08:34:15;;;;;;;;;2.25;2.25;;;;;12.80;69.01;101295.59;5062145;28;45318;-57
2022/12/26 08:36:40;;;;;;;;;3.00;2.00;;;;;12.80;69.32;101300.88;5062375;28;45256;-58
2022/12/26 08:39:05;;;;;;;;;4.00;1.25;;;;;12.83;68.88;101301.72;5062136;28;45363;-57
2022/12/26 08:41:31;;;;;;;;;2.50;2.50;;;;;12.86;68.99;101308.72;5061895;28;45308;-58
2022/12/26 08:43:56;;;;;;;;;3.00;3.00;;;;;12.90;69.12;101313.03;5062011;28;45484;-58
2022/12/26 08:46:22;;;;;;;;;3.00;1.75;;;;;12.93;68.75;101320.03;5062425;28;45322;-57
2022/12/26 08:48:48;;;;;;;;;3.00;3.00;;;;;12.90;69.21;101326.22;5062030;28;45447;-57
2022/12/26 08:51:21;;;;;;;;;3.00;2.00;;;;;12.99;68.85;101333.13;5061534;28;46062;-58
2022/12/26 08:53:50;;;;;;;;;7.25;2.75;;;;;13.01;68.70;101331.34;5061693;28;45282;-58
2022/12/26 08:56:19;;;;;;;;;1.00;1.00;;;;;13.00;69.07;101340.16;5061971;28;45323;-57
2022/12/26 08:58:45;;;;;;;;;4.25;3.50;;;;;13.02;68.94;101341.03;5077470;28;45416;-58
2022/12/26 09:01:16;;;;;;;;;5.25;4.00;;;;;13.06;68.65;101352.41;5061734;28;45491;-57
2022/12/26 09:03:42;;;;;;;;;5.75;4.00;;;;;13.06;68.55;101347.13;5061660;28;45279;-58
2022/12/26 09:06:09;;;;;;;;;5.00;3.75;;;;;13.05;68.83;101359.44;5077038;27;45276;-58
2022/12/26 09:08:36;;;;;;;;;4.75;4.00;;;;;13.06;68.63;101353.25;5061764;28;45404;-58
2022/12/26 09:11:08;;;;;;;;;3.25;2.75;;;;;13.11;68.29;101366.41;5061392;28;45287;-57
2022/12/26 09:13:34;;;;;;;;;2.00;2.00;;;;;13.11;68.73;101363.75;5061757;28;45429;-57
2022/12/26 09:16:21;;;;;;;;;3.75;2.00;;;;;13.14;69.00;101375.16;5061646;28;45391;-58
2022/12/26 09:18:47;;;;;;;;;4.00;3.00;;;;;13.13;68.85;101372.50;5076999;28;45374;-58
2022/12/26 09:21:15;;;;;;;;;4.00;4.00;;;;;13.12;68.52;101376.94;5060633;28;46183;-58
2022/12/26 09:23:41;;;;;;;;;3.50;3.50;;;;;13.14;68.89;101376.91;5061286;28;45430;-58
2022/12/26 09:26:15;;;;;;;;;2.75;2.75;;;;;13.17;68.90;101383.00;5061194;28;45426;-58
2022/12/26 09:28:40;;;;;;;;;4.50;3.00;;;;;13.14;68.66;101379.53;5052156;28;45414;-57
2022/12/26 09:31:10;;;;;;;;;3.00;2.00;;;;;13.16;68.76;101380.41;5076496;28;45857;-57
2022/12/26 09:33:36;;;;;;;;;1.75;1.75;;;;;13.20;68.44;101378.59;5061266;28;45362;-58
2022/12/26 09:36:08;;;;;;;;;2.25;2.25;;;;;13.20;68.27;101376.81;5060854;28;45276;-58
2022/12/26 09:38:35;;;;;;;;;2.50;2.50;;;;;13.21;68.73;101382.97;5076601;28;45392;-58
2022/12/26 09:41:29;;;;;;;;;3.00;3.00;;;;;13.22;68.63;101387.34;5060902;28;46509;-57
2022/12/26 09:44:13;;;;;;;;;5.00;4.00;;;;;13.25;68.48;101382.88;5038282;28;45295;-57
2022/12/26 09:46:47;;;;;;;;;3.00;1.75;;;;;13.28;68.42;101385.50;5061040;28;45297;-58
2022/12/26 09:49:21;;;;;;;;;2.25;2.00;;;;;13.25;68.54;101388.16;5060711;28;45224;-58
2022/12/26 09:51:55;;;;;;;;;5.25;4.00;;;;;13.24;68.75;101401.38;5060495;28;46317;-57
2022/12/26 09:54:40;;;;;;;;;3.75;3.00;;;;;13.28;68.47;101400.44;5061284;28;45234;-58
2022/12/26 09:57:14;;;;;;;;;3.25;3.25;;;;;13.28;68.60;101401.34;5076482;28;45277;-57
2022/12/26 09:59:57;;;;;;;;;4.00;2.00;;;;;13.26;68.75;101410.16;5060827;28;45255;-57
2022/12/26 10:02:24;;;;;;;;;2.00;2.00;;;;;13.24;68.45;101402.25;5060785;28;46118;-57
2022/12/26 10:04:52;;;;;;;;;2.50;0.50;;;;;13.29;68.25;101405.69;5060397;28;45333;-57
2022/12/26 10:07:50;;;;;;;;;1.00;1.00;;;;;13.25;68.83;101392.59;5076659;28;45282;-57
2022/12/26 10:10:46;;;;;;;;;1.25;1.25;;;;;13.32;68.20;101400.38;5059338;28;45786;-57
2022/12/26 10:13:50;;;;;;;;;3.00;1.75;;;;;13.32;68.23;101408.31;5055753;28;46149;-57
2022/12/26 10:16:26;;;;;;;;;4.50;3.00;;;;;13.33;68.19;101403.88;5018382;28;45429;-57
2022/12/26 10:19:10;;;;;;;;;2.00;2.00;;;;;13.33;68.18;101414.44;5018500;28;45452;-57
2022/12/26 10:21:57;;;;;;;;;1.50;1.50;;;;;13.32;68.23;101404.81;5046049;28;45268;-57
2022/12/26 10:24:26;;;;;;;;;2.00;1.00;;;;;13.32;68.63;101403.03;5056698;28;45456;-57
2022/12/26 10:27:04;;;;;;;;;1.75;1.00;;;;;13.37;68.12;101407.34;5051183;28;45230;-58
2022/12/26 10:29:40;;;;;;;;;1.00;1.00;;;;;13.37;68.07;101413.56;5060504;28;45485;-57
2022/12/26 10:32:12;;;;;;;;;2.00;1.00;;;;;13.38;68.70;101403.84;5059438;28;45447;-57
2022/12/26 10:34:41;;;;;;;;;1.00;1.00;;;;;13.42;68.27;101397.63;5060277;28;45462;-57
2022/12/26 10:37:34;;;;;;;;;3.00;2.00;;;;;13.40;68.37;101397.66;5060356;28;45623;-57
2022/12/26 10:40:07;;;;;;;;;1.75;1.50;;;;;13.40;68.00;101396.78;5060493;28;45326;-57
2022/12/26 10:42:36;;;;;;;;;3.50;3.00;;;;;13.45;68.14;101400.22;5060061;28;45644;-57
2022/12/26 10:45:14;;;;;;;;;2.50;1.50;;;;;13.41;68.36;101402.03;5060001;28;46188;-57
2022/12/26 10:47:43;;;;;;;;;3.75;3.25;;;;;13.42;68.32;101402.91;5075405;28;45535;-58
2022/12/26 10:50:33;;;;;;;;;3.00;1.75;;;;;13.45;68.25;101418.72;5059961;28;45312;-58
2022/12/26 10:53:02;;;;;;;;;1.75;1.50;;;;;13.47;67.62;101393.13;5059845;28;45314;-58
2022/12/26 10:55:31;;;;;;;;;3.25;2.00;;;;;13.46;67.80;101407.25;5059988;28;46519;-58
2022/12/26 10:58:08;;;;;;;;;1.50;1.50;;;;;13.49;67.72;101413.34;5059927;28;45490;-58
2022/12/26 11:00:33;;;;;;;;;1.00;1.00;;;;;13.48;68.50;101410.72;5075770;28;45326;-58
2022/12/26 11:03:06;;;;;;;;;2.75;1.50;;;;;13.51;68.03;101407.16;5059863;28;45363;-57
2022/12/26 11:05:35;;;;;;;;;3.00;3.00;;;;;13.48;68.16;101413.38;5059595;28;46210;-57
2022/12/26 11:08:16;;;;;;;;;1.50;1.50;;;;;13.52;68.14;101412.44;5059788;28;45244;-58
2022/12/26 11:10:50;;;;;;;;;2.50;2.50;;;;;13.53;67.90;101422.09;5060067;28;45440;-58
2022/12/26 11:13:21;;;;;;;;;2.00;2.00;;;;;13.57;67.76;101415.00;5059558;28;45332;-58
2022/12/26 11:15:50;;;;;;;;;2.00;1.00;;;;;13.59;67.82;101416.72;5059631;28;46046;-61
2022/12/26 11:18:34;;;;;;;;;5.25;2.00;;;;;13.57;68.16;101410.59;5059739;28;45337;-57
2022/12/26 11:21:17;;;;;;;;;6.50;3.00;;;;;13.55;68.07;101414.16;5059641;28;45371;-58
2022/12/26 11:23:44;;;;;;;;;1.25;0.50;;;;;13.58;67.87;101411.47;5059711;28;45231;-58
2022/12/26 11:26:22;;;;;;;;;3.00;2.00;;;;;13.53;67.71;101400.97;5059284;28;46201;-57
2022/12/26 11:29:05;;;;;;;;;3.50;0.00;;;;;13.55;68.10;101416.81;5059530;28;45255;-57
2022/12/26 11:31:31;;;;;;;;;2.00;1.00;;;;;13.54;67.85;101415.91;5075385;28;45350;-57
2022/12/26 11:33:59;;;;;;;;;2.25;1.00;;;;;13.57;67.59;101410.59;5059348;28;45424;-58
2022/12/26 11:36:27;;;;;;;;;2.00;1.00;;;;;13.56;67.44;101410.59;5058105;28;46326;-58
2022/12/26 11:39:19;;;;;;;;;1.75;1.75;;;;;13.52;67.74;101404.53;5059387;28;45283;-57
2022/12/26 11:41:47;;;;;;;;;4.25;2.00;;;;;13.56;67.73;101408.84;5050920;28;45597;-58
2022/12/26 11:44:13;;;;;;;;;2.00;2.00;;;;;13.55;67.64;101404.47;5061563;28;45529;-58
2022/12/26 11:47:11;;;;;;;;;2.00;0.50;;;;;13.57;67.20;101407.97;5062790;28;46095;-58
2022/12/26 11:49:53;;;;;;;;;1.25;0.00;;;;;13.59;67.73;101423.78;5062711;28;45338;-57
2022/12/26 11:52:33;;;;;;;;;2.25;1.00;;;;;13.56;67.83;101415.88;5062910;28;45558;-57
2022/12/26 11:54:59;;;;;;;;;1.00;1.00;;;;;13.57;67.31;101415.88;5062752;28;45243;-57
2022/12/26 11:57:30;;;;;;;;;0.75;0.75;;;;;13.63;67.00;101423.72;5062679;28;46247;-58
2022/12/26 12:00:17;;;;;;;;;1.50;1.50;;;;;13.64;67.11;101414.88;5062645;28;45333;-57
2022/12/26 12:02:43;;;;;;;;;1.00;1.00;;;;;13.69;67.15;101413.94;5062736;28;45451;-57
2022/12/26 12:05:37;;;;;;;;;4.75;3.00;;;;;13.67;67.37;101416.59;5062168;28;45352;-57
2022/12/26 12:08:29;;;;;;;;;4.00;2.00;;;;;13.68;67.02;101428.91;5036098;28;46279;-57
2022/12/26 12:11:19;;;;;;;;;3.50;2.50;;;;;13.69;66.68;101428.00;5062438;28;45359;-57
2022/12/26 12:14:00;;;;;;;;;2.50;1.50;;;;;13.64;66.80;101414.88;5061293;28;45456;-57
2022/12/26 12:17:11;;;;;;;;;2.75;2.75;;;;;13.69;66.75;101422.72;5062301;28;45391;-57
2022/12/26 12:20:18;;;;;;;;;2.00;1.50;;;;;13.71;66.77;101406.84;5061986;28;46021;-57
2022/12/26 12:22:56;;;;;;;;;1.00;1.00;;;;;13.72;66.40;101398.03;5062322;28;45370;-57
2022/12/26 12:25:29;;;;;;;;;2.25;1.50;;;;;13.71;66.30;101409.47;5062122;28;45412;-57
2022/12/26 12:28:13;;;;;;;;;1.00;1.00;;;;;13.73;65.52;101395.34;5061874;28;45345;-57
2022/12/26 12:31:10;;;;;;;;;3.00;1.00;;;;;13.75;66.30;101393.56;5062055;28;46370;-57
2022/12/26 12:33:48;;;;;;;;;2.50;1.25;;;;;13.77;65.87;101418.19;5046566;28;45504;-56
2022/12/26 12:36:27;;;;;;;;;1.00;1.00;;;;;13.75;66.01;101422.63;5062271;28;45291;-57
2022/12/26 12:39:09;;;;;;;;;0.50;0.50;;;;;13.78;65.97;101429.63;5061983;28;45320;-57
2022/12/26 12:41:41;;;;;;;;;0.00;0.00;;;;;13.79;65.77;101444.59;5077587;27;47795;-57
2022/12/26 12:44:25;;;;;;;;;1.50;0.00;;;;;13.76;65.51;101439.34;5061700;28;45427;-57
2022/12/26 12:47:12;;;;;;;;;0.00;0.00;;;;;13.71;65.28;101444.72;5061914;28;45354;-56
2022/12/26 12:49:51;;;;;;;;;2.00;0.25;;;;;13.65;65.64;101450.09;5061828;28;45354;-56
2022/12/26 12:52:33;;;;;;;;;1.00;0.75;;;;;13.60;65.65;101450.16;5061569;28;45301;-56
2022/12/26 12:55:01;;;;;;;;;1.00;0.00;;;;;13.51;65.31;101460.88;5061120;28;45276;-56
2022/12/26 12:57:26;;;;;;;;;0.75;0.00;;;;;13.42;66.06;101461.88;5061944;28;45475;-57
2022/12/26 13:00:37;;;;;;;;;4.50;1.75;;;;;13.33;66.25;101456.66;5061601;28;45227;-57
2022/12/26 13:03:25;;;;;;;;;2.00;2.00;;;;;13.21;66.20;101468.28;5058416;28;45331;-57
2022/12/26 13:06:19;;;;;;;;;5.00;3.50;;;;;13.10;66.45;101471.06;5060605;28;45170;-56
2022/12/26 13:08:54;;;;;;;;;2.00;2.00;;;;;13.07;66.69;101475.50;5059525;28;45537;-57
2022/12/26 13:11:47;;;;;;;;;4.25;4.00;;;;;13.00;66.78;101487.91;5061363;28;45240;-57
2022/12/26 13:14:20;;;;;;;;;1.75;1.75;;;;;12.92;66.45;101501.19;5061350;28;46272;-57
2022/12/26 13:16:56;;;;;;;;;3.00;3.00;;;;;12.88;66.95;101503.88;5061681;28;45317;-57
2022/12/26 13:19:29;;;;;;;;;3.00;2.00;;;;;12.79;67.02;101503.09;5061288;28;45367;-57
2022/12/26 13:22:01;;;;;;;;;3.50;2.00;;;;;12.77;66.82;101509.28;5061299;28;45332;-57
2022/12/26 13:24:44;;;;;;;;;2.25;2.25;;;;;12.70;66.84;101516.38;5061060;28;45323;-57
2022/12/26 13:27:17;;;;;;;;;1.50;1.00;;;;;12.68;66.62;101510.25;5060985;28;45193;-57
2022/12/26 13:29:45;;;;;;;;;1.00;1.00;;;;;12.61;66.48;101506.78;5048734;28;45277;-57
2022/12/26 13:32:21;;;;;;;;;2.50;1.00;;;;;12.60;66.33;101501.53;5061068;28;45379;-57
2022/12/26 13:34:48;;;;;;;;;1.00;1.00;;;;;12.63;66.11;101515.56;5060973;28;46326;-57
2022/12/26 13:37:38;;;;;;;;;1.25;1.00;;;;;12.68;65.84;101505.84;5061042;28;45221;-56
2022/12/26 13:40:04;;;;;;;;;0.50;0.50;;;;;12.73;64.87;101516.34;5061212;28;45254;-57
2022/12/26 13:45:40;;;;;;;;;0.00;0.00;;;;;12.82;64.76;101508.34;5060838;28;45801;-57
2022/12/26 13:48:15;;;;;;;;;0.00;0.00;;;;;13.00;64.49;101523.09;5053112;28;45407;-56
2022/12/26 13:51:00;;;;;;;;;0.00;0.00;;;;;13.15;63.75;101524.66;5060625;28;45347;-57
2022/12/26 13:53:30;;;;;;;;;1.50;0.00;;;;;13.27;63.67;101507.81;5060445;28;45253;-57